Thurles, Ireland

2:52 AM IST on August 04, 2015 (GMT +0100)
LIT Tipperary | | Change Station
CLOSE
Current Station
Personal Weather Station
Location: Thurles, COUNTY TIPPERARY
Elevation: 354 ft
Nearby Weather Stations

Elev 354 ft 52.69 °N, 7.83 °W | Updated 1 day ago

Rain
Rain
57 °F
Feels Like 57 °F
N
17
Wind Variable Wind from SSW
Gusts 27 mph

Today
High -- | Low -- °F
--% Chance of Precip.
Yesterday
High -- | Low -- °F
Precip. -- in
5:54 AM 9:19 PM
Waning Gibbous, 82% visible
Pressure 29.50 in
Visibility 6.2 miles
Clouds Few 1500 ft
Scattered Clouds 2600 ft
Mostly Cloudy 5000 ft
Dew Point 52 °F
Humidity 84%
Rainfall in
Snow Depth Not available.
UV 0 out of 12
Pollen Not available.
Air Quality Not available.
Flu Activity Not available.
METAR EIME 040100Z 21022G37KT 9999 -RA FEW015 SCT026 BKN050 13/11 Q0999

More Conditions Fewer Conditions

Pressure 29.50 in
Visibility 6.2 miles
Clouds Few 1500 ft
Scattered Clouds 2600 ft
Mostly Cloudy 5000 ft
Dew Point 52 °F
Humidity 84%
Rainfall in
Snow Depth Not available.
UV 0 out of 12
Pollen Not available.
Air Quality Not available.
Flu Activity Not available.
METAR EIME 040100Z 21022G37KT 9999 -RA FEW015 SCT026 BKN050 13/11 Q0999

More Conditions Fewer Conditions

10-Day Weather Forecast

×

Almanac

Astronomy

Aug. 04, 2015 Rise Set
Actual Time
Civil Twilight
Nautical Twilight
Astronomical Twilight
Moon
Length of Visible Light
Length of Day
Tomorrow will be .
, % of the Moon is Illuminated

Today's Extremes

Country Highs Country Lows

Community

WunderPhotos

Upload Photos

1,843,820 photos uploaded!

WunderBlogs® & News

Nearby

Air Quality

  Air Quality AQ Index Pollutant
Not available.

Snow Depth

Station Depth Elevation

Earthquake Activity

City Distance Mag. Time & Date
Minimum magnitude displayed is 2.5.

Coastal Water Temperatures

Place Temperature

Stations

Nearby Weather Stations

Station Location Temp. Windchill Dew Point Humidity Wind Precip. Elev Updated Type